Time;durP1;ratioP1;P1;durP2;ratioP2;P2;SDS_P1;SDS_P2;PMS_P1;PMS_P2;Temp;Humidity;BMP_temperature;BMP_pressure;BME280_temperature;BME280_humidity;BME280_pressure;Samples;Min_cycle;Max_cycle;Signal;HPM_P1;HPM_P2
2022/05/12 00:01:38;;;;;;;7.47;2.50;;;;;;;-141.50;100.00;63355.56;5054101;28;20056;-80
2022/05/12 00:04:04;;;;;;;10.77;3.10;;;;;;;-141.50;100.00;63355.56;5072911;28;20481;-82
2022/05/12 00:06:35;;;;;;;8.25;2.50;;;;;;;-141.50;100.00;63355.56;5074246;28;20139;-81
2022/05/12 00:09:02;;;;;;;5.25;2.40;;;;;;;-141.50;100.00;63355.56;5110749;28;20051;-83
2022/05/12 00:11:30;;;;;;;4.60;2.40;;;;;;;-141.50;100.00;63355.56;5112425;28;20056;-82
2022/05/12 00:13:57;;;;;;;7.65;2.65;;;;;;;-141.50;100.00;63355.56;5111311;28;20063;-79
2022/05/12 00:16:24;;;;;;;9.98;2.92;;;;;;;-141.50;100.00;63355.56;5111890;28;20554;-80
2022/05/12 00:18:50;;;;;;;11.35;2.65;;;;;;;-141.50;100.00;63355.56;5093535;28;20127;-80
2022/05/12 00:21:17;;;;;;;6.18;2.60;;;;;;;-141.50;100.00;63355.56;5095880;28;20051;-81
2022/05/12 00:23:56;;;;;;;7.10;2.70;;;;;;;-141.50;100.00;63355.56;5115737;28;20561;-81
2022/05/12 00:26:27;;;;;;;8.95;2.58;;;;;;;-141.50;100.00;63355.56;5073911;28;20108;-85
2022/05/12 00:28:57;;;;;;;5.25;2.30;;;;;;;-141.50;100.00;63355.56;5057504;28;20053;-84
2022/05/12 00:31:24;;;;;;;7.28;2.28;;;;;;;-141.50;100.00;63355.56;5075796;28;20048;-83
2022/05/12 00:33:50;;;;;;;8.20;2.45;;;;;;;-141.50;100.00;63355.56;5074359;28;20075;-83
2022/05/12 00:36:17;;;;;;;6.20;2.30;;;;;;;-141.50;100.00;63355.56;5075038;28;20048;-81
2022/05/12 00:38:44;;;;;;;3.50;2.20;;;;;;;-141.50;100.00;63355.56;5081331;28;20048;-81
2022/05/12 00:41:11;;;;;;;7.00;2.60;;;;;;;-141.50;100.00;63355.56;5076450;28;20048;-83
2022/05/12 00:43:42;;;;;;;11.70;2.40;;;;;;;-141.50;100.00;63355.56;5072253;28;20056;-83
2022/05/12 00:46:27;;;;;;;6.47;2.30;;;;;;;-141.50;100.00;63355.56;5057195;28;20083;-82
2022/05/12 00:48:59;;;;;;;4.93;2.40;;;;;;;-141.50;100.00;63355.56;5057761;28;20052;-79
2022/05/12 00:51:42;;;;;;;7.25;2.42;;;;;;;-141.50;100.00;63355.56;5075535;28;20112;-83
2022/05/12 00:54:39;;;;;;;5.72;2.50;;;;;;;-141.50;100.00;63355.56;5075741;28;20092;-81
2022/05/12 00:57:08;;;;;;;9.23;2.40;;;;;;;-141.50;100.00;63355.56;5060250;28;20060;-78
2022/05/12 00:59:36;;;;;;;9.35;2.45;;;;;;;-141.50;100.00;63355.56;5073148;28;20772;-80
2022/05/12 01:02:08;;;;;;;7.65;2.50;;;;;;;-141.50;100.00;63355.56;5073896;28;20059;-79
2022/05/12 01:04:35;;;;;;;5.88;2.50;;;;;;;-141.50;100.00;63355.56;5072559;28;20063;-82
2022/05/12 01:07:01;;;;;;;5.28;2.35;;;;;;;-141.50;100.00;63355.56;5107303;28;20083;-82
2022/05/12 01:09:30;;;;;;;11.15;2.10;;;;;;;-141.50;100.00;63355.56;5075721;28;20080;-80
2022/05/12 01:11:57;;;;;;;9.32;2.53;;;;;;;-141.50;100.00;63355.56;5059358;28;20048;-82
2022/05/12 01:14:24;;;;;;;5.00;2.30;;;;;;;-141.50;100.00;63355.56;5057679;28;20079;-83
2022/05/12 01:16:57;;;;;;;7.63;2.42;;;;;;;-141.50;100.00;63355.56;5058310;28;20095;-84
2022/05/12 01:19:26;;;;;;;6.13;2.25;;;;;;;-141.50;100.00;63355.56;5058264;28;20083;-81
2022/05/12 01:21:54;;;;;;;6.22;2.22;;;;;;;-141.50;100.00;63355.56;5056943;28;20056;-79
2022/05/12 01:24:25;;;;;;;5.50;2.38;;;;;;;-141.50;100.00;63355.56;5062647;28;20074;-82
2022/05/12 01:26:52;;;;;;;4.40;2.15;;;;;;;-141.50;100.00;63355.56;5106728;28;20051;-84
2022/05/12 01:29:18;;;;;;;5.47;2.25;;;;;;;-141.50;100.00;63355.56;5083028;28;20052;-79
2022/05/12 01:31:45;;;;;;;13.60;2.63;;;;;;;-141.50;100.00;63355.56;5081979;28;20048;-83
2022/05/12 01:34:13;;;;;;;6.35;2.17;;;;;;;-141.50;100.00;63355.56;5096500;28;20048;-84
2022/05/12 01:36:40;;;;;;;7.03;2.35;;;;;;;-141.50;100.00;63355.56;5094722;28;20123;-78
2022/05/12 01:39:08;;;;;;;5.20;2.22;;;;;;;-141.50;100.00;63355.56;5093392;28;20052;-81
2022/05/12 01:41:35;;;;;;;6.78;2.60;;;;;;;-141.50;100.00;63355.56;5076207;28;20048;-82
2022/05/12 01:44:04;;;;;;;5.18;2.65;;;;;;;-141.50;100.00;63355.56;5095182;28;20107;-83
2022/05/12 01:46:30;;;;;;;8.23;2.28;;;;;;;-141.50;100.00;63355.56;5095051;28;20059;-80
2022/05/12 01:48:57;;;;;;;6.63;2.55;;;;;;;-141.50;100.00;63355.56;5076320;28;20048;-80
2022/05/12 01:51:25;;;;;;;5.32;2.60;;;;;;;-141.50;100.00;63355.56;5094224;28;20144;-82
2022/05/12 01:53:52;;;;;;;5.82;2.58;;;;;;;-141.50;100.00;63355.56;5092972;28;20048;-81
2022/05/12 01:56:18;;;;;;;7.03;2.63;;;;;;;-141.50;100.00;63355.56;5078352;28;20060;-81
2022/05/12 01:58:45;;;;;;;5.65;2.28;;;;;;;-141.50;100.00;63355.56;5076864;28;20139;-84
2022/05/12 02:01:11;;;;;;;8.30;2.40;;;;;;;-141.50;100.00;63355.56;5083868;28;20052;-81
2022/05/12 02:03:40;;;;;;;6.75;2.40;;;;;;;-141.50;100.00;63355.56;5080876;28;20056;-82
2022/05/12 02:06:07;;;;;;;6.97;2.50;;;;;;;-141.50;100.00;63355.56;5087914;28;20049;-80
2022/05/12 02:08:33;;;;;;;5.13;2.20;;;;;;;-141.50;100.00;63355.56;5082443;28;20052;-82
2022/05/12 02:11:00;;;;;;;7.10;2.97;;;;;;;-141.50;100.00;63355.56;5076431;28;20056;-78
2022/05/12 02:13:27;;;;;;;6.82;2.70;;;;;;;-141.50;100.00;63355.56;5077114;28;20048;-82
2022/05/12 02:15:56;;;;;;;7.00;2.33;;;;;;;-141.50;100.00;63355.56;5075215;28;20455;-79
2022/05/12 02:18:24;;;;;;;8.30;2.50;;;;;;;-141.50;100.00;63355.56;5073646;28;20393;-80
2022/05/12 02:20:51;;;;;;;11.43;2.63;;;;;;;-141.50;100.00;63355.56;5072298;28;20059;-82
2022/05/12 02:23:18;;;;;;;7.07;2.80;;;;;;;-141.50;100.00;63355.56;5054519;28;20048;-78
2022/05/12 02:25:44;;;;;;;5.38;2.38;;;;;;;-141.50;100.00;63355.56;5069615;28;20048;-81
2022/05/12 02:28:11;;;;;;;4.22;2.58;;;;;;;-141.50;100.00;63355.56;5075286;28;20060;-85
2022/05/12 02:30:38;;;;;;;8.10;2.63;;;;;;;-141.50;100.00;63355.56;5092723;28;20071;-82
2022/05/12 02:33:05;;;;;;;8.80;2.60;;;;;;;-141.50;100.00;63355.56;5075284;28;20760;-81
2022/05/12 02:35:31;;;;;;;5.22;2.70;;;;;;;-141.50;100.00;63355.56;5093935;28;20527;-81
2022/05/12 02:37:58;;;;;;;7.32;2.70;;;;;;;-141.50;100.00;63355.56;5075826;28;20139;-82
2022/05/12 02:40:28;;;;;;;6.32;3.00;;;;;;;-141.50;100.00;63355.56;5076412;28;20055;-82
2022/05/12 02:42:57;;;;;;;8.48;2.80;;;;;;;-141.50;100.00;63355.56;5094109;28;20047;-81
2022/05/12 02:45:25;;;;;;;8.18;2.45;;;;;;;-141.50;100.00;63355.56;5094323;28;20048;-78
2022/05/12 02:47:52;;;;;;;4.25;2.47;;;;;;;-141.50;100.00;63355.56;5093225;28;20048;-82
2022/05/12 02:50:20;;;;;;;4.05;2.42;;;;;;;-141.50;100.00;63355.56;5093120;28;20121;-82
2022/05/12 02:52:46;;;;;;;4.50;2.40;;;;;;;-141.50;100.00;63355.56;5092685;28;20063;-81
2022/05/12 02:55:14;;;;;;;5.57;2.55;;;;;;;-141.50;100.00;63355.56;5095014;28;20067;-80
2022/05/12 02:57:41;;;;;;;5.95;2.40;;;;;;;-141.50;100.00;63355.56;5092750;28;20079;-82
2022/05/12 03:00:12;;;;;;;7.13;2.20;;;;;;;-141.50;100.00;63355.56;5093205;28;20044;-85
2022/05/12 03:02:39;;;;;;;5.40;2.72;;;;;;;-141.50;100.00;63355.56;5094128;28;20078;-80
2022/05/12 03:05:06;;;;;;;7.65;2.30;;;;;;;-141.50;100.00;63355.56;5102253;28;20134;-80
2022/05/12 03:07:33;;;;;;;6.45;2.50;;;;;;;-141.50;100.00;63355.56;5083620;28;20052;-78
2022/05/12 03:10:03;;;;;;;5.15;2.80;;;;;;;-141.50;100.00;63355.56;5108145;28;20036;-81
2022/05/12 03:12:30;;;;;;;6.53;2.75;;;;;;;-141.50;100.00;63355.56;5107197;28;20044;-82
2022/05/12 03:14:57;;;;;;;5.80;2.42;;;;;;;-141.50;100.00;63355.56;5076585;28;20063;-84
2022/05/12 03:17:23;;;;;;;7.43;2.75;;;;;;;-141.50;100.00;63355.56;5094019;28;20063;-82
2022/05/12 03:19:50;;;;;;;8.15;2.63;;;;;;;-141.50;100.00;63355.56;5084309;28;20039;-80
2022/05/12 03:22:17;;;;;;;10.15;2.72;;;;;;;-141.50;100.00;63355.56;5096068;28;20093;-82
2022/05/12 03:24:43;;;;;;;4.40;2.40;;;;;;;-141.50;100.00;63355.56;5108211;28;20066;-82
2022/05/12 03:27:13;;;;;;;6.70;2.60;;;;;;;-141.50;100.00;63355.56;5095551;28;20055;-81
2022/05/12 03:29:39;;;;;;;8.45;2.58;;;;;;;-141.50;100.00;63355.56;5108845;28;20032;-77
2022/05/12 03:32:10;;;;;;;6.20;2.67;;;;;;;-141.50;100.00;63355.56;5114777;28;20052;-81
2022/05/12 03:34:39;;;;;;;6.68;2.60;;;;;;;-141.50;100.00;63355.56;5095926;28;20096;-82
2022/05/12 03:37:09;;;;;;;4.60;2.70;;;;;;;-141.50;100.00;63355.56;5102010;28;20044;-81
2022/05/12 03:39:42;;;;;;;6.20;2.90;;;;;;;-141.50;100.00;63355.56;5092548;28;20080;-78
2022/05/12 03:42:15;;;;;;;7.28;2.90;;;;;;;-141.50;100.00;63355.56;5078832;28;20136;-82
2022/05/12 03:44:49;;;;;;;5.00;3.00;;;;;;;-141.50;100.00;63355.56;5061010;28;20063;-78
2022/05/12 03:47:22;;;;;;;7.97;3.00;;;;;;;-141.50;100.00;63355.56;5081963;28;20075;-80
2022/05/12 03:49:50;;;;;;;5.25;2.97;;;;;;;-141.50;100.00;63355.56;5076357;28;20098;-79
2022/05/12 03:52:18;;;;;;;4.68;3.03;;;;;;;-141.50;100.00;63355.56;5069415;28;20515;-79
2022/05/12 03:54:44;;;;;;;5.93;2.97;;;;;;;-141.50;100.00;63355.56;5052176;28;20044;-77
2022/05/12 03:57:12;;;;;;;8.57;3.00;;;;;;;-141.50;100.00;63355.56;5071253;28;20090;-80
2022/05/12 03:59:40;;;;;;;8.65;3.30;;;;;;;-141.50;100.00;63355.56;5071842;28;20052;-81
2022/05/12 04:02:09;;;;;;;7.68;3.17;;;;;;;-141.50;100.00;63355.56;5071953;28;20473;-81
2022/05/12 04:04:35;;;;;;;6.28;3.10;;;;;;;-141.50;100.00;63355.56;5055478;28;20049;-80
2022/05/12 04:07:03;;;;;;;8.50;2.75;;;;;;;-141.50;100.00;63355.56;5083074;28;20182;-77
2022/05/12 04:09:30;;;;;;;8.02;2.50;;;;;;;-141.50;100.00;63355.56;5073298;28;20083;-81
2022/05/12 04:11:57;;;;;;;5.70;2.70;;;;;;;-141.50;100.00;63355.56;5096561;28;20533;-81
2022/05/12 04:14:24;;;;;;;6.95;2.53;;;;;;;-141.50;100.00;63355.56;5098748;28;20052;-80
2022/05/12 04:16:51;;;;;;;9.50;2.72;;;;;;;-141.50;100.00;63355.56;5079348;28;20105;-79
2022/05/12 04:19:17;;;;;;;6.95;2.80;;;;;;;-141.50;100.00;63355.56;5094627;28;20495;-79
2022/05/12 04:21:44;;;;;;;5.20;2.50;;;;;;;-141.50;100.00;63355.56;5076961;28;20083;-80
2022/05/12 04:24:10;;;;;;;13.15;3.05;;;;;;;-141.50;100.00;63355.56;5076939;28;20087;-78
2022/05/12 04:26:39;;;;;;;8.00;2.63;;;;;;;-141.50;100.00;63355.56;5076699;28;20124;-78
2022/05/12 04:29:07;;;;;;;6.43;2.45;;;;;;;-141.50;100.00;63355.56;5075787;28;20104;-81
2022/05/12 04:31:33;;;;;;;4.78;2.53;;;;;;;-141.50;100.00;63355.56;5059667;28;20109;-81
2022/05/12 04:36:45;;;;;;;6.30;2.20;;;;;;;-141.50;100.00;63355.56;5074505;28;20087;-78
2022/05/12 04:39:12;;;;;;;4.88;2.45;;;;;;;-141.50;100.00;63355.56;5075581;28;20087;-78
2022/05/12 04:41:38;;;;;;;6.47;2.75;;;;;;;-141.50;100.00;63355.56;5076172;28;20048;-80
2022/05/12 04:44:06;;;;;;;12.38;2.75;;;;;;;-141.50;100.00;63355.56;5075005;28;20099;-77
2022/05/12 04:46:35;;;;;;;16.45;2.90;;;;;;;-141.50;100.00;63355.56;5057712;28;20044;-77
2022/05/12 04:49:02;;;;;;;16.25;2.50;;;;;;;-141.50;100.00;63355.56;5072696;28;20066;-79
2022/05/12 04:51:29;;;;;;;15.43;2.80;;;;;;;-141.50;100.00;63355.56;5054933;28;20052;-78
2022/05/12 04:53:56;;;;;;;17.05;3.58;;;;;;;-141.50;100.00;63355.56;5056315;28;20103;-81
2022/05/12 04:56:22;;;;;;;10.00;2.67;;;;;;;-141.50;100.00;63355.56;5053995;28;20067;-78
2022/05/12 04:58:49;;;;;;;13.82;2.85;;;;;;;-141.50;100.00;63355.56;5073139;28;20103;-78
2022/05/12 05:01:15;;;;;;;22.27;2.83;;;;;;;-141.50;100.00;63355.56;5075117;28;20102;-78
2022/05/12 05:03:42;;;;;;;18.63;2.92;;;;;;;-141.50;100.00;63355.56;5064256;28;20052;-79
2022/05/12 05:06:09;;;;;;;17.13;2.78;;;;;;;-141.50;100.00;63355.56;5078040;28;20132;-80
2022/05/12 05:08:36;;;;;;;16.30;2.65;;;;;;;-141.50;100.00;63355.56;5072867;28;20048;-79
2022/05/12 05:11:06;;;;;;;9.98;2.90;;;;;;;-141.50;100.00;63355.56;5090416;28;20066;-81
2022/05/12 05:13:33;;;;;;;10.85;2.88;;;;;;;-141.50;100.00;63355.56;5060467;28;20098;-78
2022/05/12 05:16:00;;;;;;;14.75;3.00;;;;;;;-141.50;100.00;63355.56;5073390;28;20049;-78
2022/05/12 05:18:27;;;;;;;14.65;3.08;;;;;;;-141.50;100.00;63355.56;5091763;28;20079;-77
2022/05/12 05:20:54;;;;;;;17.25;3.42;;;;;;;-141.50;100.00;63355.56;5074215;28;20052;-77
2022/05/12 05:23:21;;;;;;;11.18;2.85;;;;;;;-141.50;100.00;63355.56;5093725;28;20083;-78
2022/05/12 05:25:49;;;;;;;14.07;2.90;;;;;;;-141.50;100.00;63355.56;5096168;28;20044;-78
2022/05/12 05:28:16;;;;;;;13.27;2.47;;;;;;;-141.50;100.00;63355.56;5098514;28;20060;-79
2022/05/12 05:30:43;;;;;;;13.02;2.50;;;;;;;-141.50;100.00;63355.56;5092857;28;20700;-80
2022/05/12 05:33:10;;;;;;;8.30;2.75;;;;;;;-141.50;100.00;63355.56;5075456;28;20047;-78
2022/05/12 05:35:37;;;;;;;8.65;2.67;;;;;;;-141.50;100.00;63355.56;5096988;28;20052;-77
2022/05/12 05:38:06;;;;;;;8.38;2.78;;;;;;;-141.50;100.00;63355.56;5074082;28;20079;-78
2022/05/12 05:40:33;;;;;;;18.48;3.03;;;;;;;-141.50;100.00;63355.56;5099283;28;20056;-77
2022/05/12 05:43:00;;;;;;;7.80;2.20;;;;;;;-141.50;100.00;63355.56;5094851;28;20051;-77
2022/05/12 05:45:27;;;;;;;8.77;2.08;;;;;;;-141.50;100.00;63355.56;5074568;28;20070;-79
2022/05/12 05:47:58;;;;;;;12.48;2.72;;;;;;;-141.50;100.00;63355.56;5093814;28;20076;-77
2022/05/12 05:53:23;;;;;;;8.57;2.30;;;;;;;-141.50;100.00;63355.56;5076519;28;20079;-78
2022/05/12 05:53:24;;;;;;;11.95;2.60;;;;;;;-141.50;100.00;63355.56;5093343;28;20097;-77
2022/05/12 05:55:52;;;;;;;10.77;2.55;;;;;;;-141.50;100.00;63355.56;5079847;28;20133;-80
2022/05/12 05:58:20;;;;;;;5.65;2.20;;;;;;;-141.50;100.00;63355.56;5091701;28;20566;-78
2022/05/12 06:00:46;;;;;;;25.58;3.28;;;;;;;-141.50;100.00;63355.56;5092357;28;20097;-77
2022/05/12 06:03:13;;;;;;;10.82;2.70;;;;;;;-141.50;100.00;63355.56;5072978;28;20044;-80
2022/05/12 06:05:44;;;;;;;11.50;2.42;;;;;;;-141.50;100.00;63355.56;5090936;28;20051;-78
2022/05/12 06:08:13;;;;;;;8.60;2.38;;;;;;;-141.50;100.00;63355.56;5091294;28;20052;-79
2022/05/12 06:10:42;;;;;;;7.70;2.50;;;;;;;-141.50;100.00;63355.56;5074115;28;20070;-79
2022/05/12 06:13:09;;;;;;;7.53;2.63;;;;;;;-141.50;100.00;63355.56;5092361;28;20500;-78
2022/05/12 06:15:35;;;;;;;14.07;2.70;;;;;;;-141.50;100.00;63355.56;5092240;28;20121;-79
2022/05/12 06:18:10;;;;;;;8.82;2.25;;;;;;;-141.50;100.00;63355.56;5054761;28;20057;-77
2022/05/12 06:20:38;;;;;;;6.57;2.20;;;;;;;-141.50;100.00;63355.56;5072357;28;20048;-79
2022/05/12 06:23:04;;;;;;;8.00;2.30;;;;;;;-141.50;100.00;63355.56;5070246;28;20068;-76
2022/05/12 06:25:31;;;;;;;8.23;2.60;;;;;;;-141.50;100.00;63355.56;5071388;28;20083;-79
2022/05/12 06:27:58;;;;;;;11.18;3.10;;;;;;;-141.50;100.00;63355.56;5073225;28;20416;-78
2022/05/12 06:30:24;;;;;;;9.95;3.03;;;;;;;-141.50;100.00;63355.56;5072502;28;20096;-79
2022/05/12 06:32:51;;;;;;;13.52;2.83;;;;;;;-141.50;100.00;63355.56;5072556;28;20060;-78
2022/05/12 06:35:20;;;;;;;9.90;2.75;;;;;;;-141.50;100.00;63355.56;5053416;28;20499;-79
2022/05/12 06:37:46;;;;;;;9.63;2.83;;;;;;;-141.50;100.00;63355.56;5053129;28;20045;-78
2022/05/12 06:40:13;;;;;;;7.50;3.05;;;;;;;-141.50;100.00;63355.56;5052863;28;20135;-78
2022/05/12 06:42:47;;;;;;;9.32;2.92;;;;;;;-141.50;100.00;63355.56;5054778;28;20538;-78
2022/05/12 06:45:16;;;;;;;7.07;2.70;;;;;;;-141.50;100.00;63355.56;5071568;28;20144;-77
2022/05/12 06:47:48;;;;;;;8.10;2.90;;;;;;;-141.50;100.00;63355.56;5074487;28;20059;-78
2022/05/12 06:50:16;;;;;;;12.02;3.25;;;;;;;-141.50;100.00;63355.56;5058727;28;20048;-78
2022/05/12 06:52:43;;;;;;;12.85;2.80;;;;;;;-141.50;100.00;63355.56;5071543;28;20080;-80
2022/05/12 06:55:10;;;;;;;11.63;2.88;;;;;;;-141.50;100.00;63355.56;5071182;28;20057;-80
2022/05/12 06:57:38;;;;;;;11.88;2.53;;;;;;;-141.50;100.00;63355.56;5072022;28;20041;-78
2022/05/12 07:00:06;;;;;;;5.88;2.53;;;;;;;-141.50;100.00;63355.56;5056041;28;20689;-82
2022/05/12 07:02:33;;;;;;;7.15;2.65;;;;;;;-141.50;100.00;63355.56;5072924;28;20119;-80
2022/05/12 07:05:00;;;;;;;9.73;2.30;;;;;;;-141.50;100.00;63355.56;5072225;28;20135;-83
2022/05/12 07:07:28;;;;;;;3.75;2.20;;;;;;;-141.50;100.00;63355.56;5055079;28;20131;-83
2022/05/12 07:09:55;;;;;;;5.43;2.33;;;;;;;-141.50;100.00;63355.56;5062082;28;20044;-79
2022/05/12 07:12:22;;;;;;;8.43;2.70;;;;;;;-141.50;100.00;63355.56;5083956;28;20048;-78
2022/05/12 07:14:51;;;;;;;12.63;2.35;;;;;;;-141.50;100.00;63355.56;5086377;28;20150;-79
2022/05/12 07:17:21;;;;;;;5.25;1.90;;;;;;;-141.50;100.00;63355.56;5097587;28;20036;-77
2022/05/12 07:19:49;;;;;;;8.13;2.30;;;;;;;-141.50;100.00;63355.56;5102398;28;20130;-77
2022/05/12 07:27:47;;;;;;;5.35;2.65;;;;;;;-141.50;100.00;63355.56;5093567;28;20158;-82
2022/05/12 07:30:13;;;;;;;8.57;2.78;;;;;;;-141.50;100.00;63355.56;5099715;28;20043;-79
2022/05/12 07:32:40;;;;;;;14.00;2.63;;;;;;;-141.50;100.00;63355.56;5077678;28;20052;-79
2022/05/12 07:35:08;;;;;;;11.68;2.85;;;;;;;-141.50;100.00;63355.56;5077685;28;20074;-79
2022/05/12 07:37:37;;;;;;;8.00;2.30;;;;;;;-141.50;100.00;63355.56;5091444;28;20051;-80
2022/05/12 07:40:05;;;;;;;10.75;2.67;;;;;;;-141.50;100.00;63355.56;5100178;28;20125;-81
2022/05/12 07:42:32;;;;;;;8.93;2.42;;;;;;;-141.50;100.00;63355.56;5091053;28;20055;-80
2022/05/12 07:44:59;;;;;;;8.82;2.55;;;;;;;-141.50;100.00;63355.56;5090752;28;20048;-81
2022/05/12 07:47:26;;;;;;;9.57;2.50;;;;;;;-141.50;100.00;63355.56;5094490;28;20094;-79
2022/05/12 07:49:53;;;;;;;10.18;2.30;;;;;;;-141.50;100.00;63355.56;5101368;28;20056;-80
2022/05/12 07:52:19;;;;;;;8.68;2.45;;;;;;;-141.50;100.00;63355.56;5103719;28;20062;-78
2022/05/12 07:54:46;;;;;;;13.00;2.20;;;;;;;-141.50;100.00;63355.56;5086223;28;20114;-79
2022/05/12 07:57:12;;;;;;;9.25;2.72;;;;;;;-141.50;100.00;63355.56;5105525;28;20066;-76
2022/05/12 07:59:41;;;;;;;6.03;2.25;;;;;;;-141.50;100.00;63355.56;5109947;28;20249;-79
2022/05/12 08:02:07;;;;;;;7.45;2.40;;;;;;;-141.50;100.00;63355.56;5095202;28;20074;-77
2022/05/12 08:04:37;;;;;;;10.20;2.03;;;;;;;-141.50;100.00;63355.56;5113277;28;20056;-77
2022/05/12 08:07:03;;;;;;;11.45;2.10;;;;;;;-141.50;100.00;63355.56;5115311;28;20105;-75
2022/05/12 08:09:30;;;;;;;8.15;1.75;;;;;;;-141.50;100.00;63355.56;5116276;28;20111;-79
2022/05/12 08:11:57;;;;;;;7.40;2.10;;;;;;;-141.50;100.00;63355.56;5113574;28;20051;-76
2022/05/12 08:14:23;;;;;;;7.43;2.03;;;;;;;-141.50;100.00;63355.56;5099643;28;20114;-82
2022/05/12 08:16:50;;;;;;;5.22;1.88;;;;;;;-141.50;100.00;63355.56;5097337;28;20472;-82
2022/05/12 08:19:16;;;;;;;5.20;2.10;;;;;;;-141.50;100.00;63355.56;5077405;28;20520;-79
2022/05/12 08:21:43;;;;;;;6.72;1.88;;;;;;;-141.50;100.00;63355.56;5077471;28;20132;-78
2022/05/12 08:24:09;;;;;;;4.40;2.03;;;;;;;-141.50;100.00;63355.56;5094903;28;20683;-80
2022/05/12 08:26:36;;;;;;;7.55;2.03;;;;;;;-141.50;100.00;63355.56;5094614;28;20076;-78
2022/05/12 08:29:03;;;;;;;8.88;1.90;;;;;;;-141.50;100.00;63355.56;5078850;28;20048;-80
2022/05/12 08:31:30;;;;;;;11.70;2.10;;;;;;;-141.50;100.00;63355.56;5077790;28;20068;-78
2022/05/12 08:33:59;;;;;;;12.10;1.70;;;;;;;-141.50;100.00;63355.56;5093278;28;20048;-78
2022/05/12 08:36:28;;;;;;;7.88;1.90;;;;;;;-141.50;100.00;63355.56;5093160;28;20048;-82
2022/05/12 08:38:55;;;;;;;7.15;1.80;;;;;;;-141.50;100.00;63355.56;5095809;28;20106;-77
2022/05/12 08:41:40;;;;;;;7.38;1.77;;;;;;;-141.50;100.00;63355.56;5080076;28;20121;-79
2022/05/12 08:44:20;;;;;;;7.28;1.80;;;;;;;-141.50;100.00;63355.56;5099534;28;20043;-77
2022/05/12 08:47:00;;;;;;;7.13;1.58;;;;;;;-141.50;100.00;63355.56;5099079;28;20610;-80
2022/05/12 08:49:31;;;;;;;3.10;1.52;;;;;;;-141.50;100.00;63355.56;5092691;28;20097;-77
2022/05/12 08:52:07;;;;;;;8.35;1.83;;;;;;;-141.50;100.00;63355.56;5095187;28;20048;-77
2022/05/12 08:54:38;;;;;;;6.35;2.00;;;;;;;-141.50;100.00;63355.56;5093210;28;20079;-79
2022/05/12 08:57:11;;;;;;;8.32;1.65;;;;;;;-141.50;100.00;63355.56;5075068;28;20127;-78
2022/05/12 08:59:40;;;;;;;10.23;1.80;;;;;;;-141.50;100.00;63355.56;5093960;28;20048;-79
2022/05/12 09:02:24;;;;;;;6.40;1.80;;;;;;;-141.50;100.00;63355.56;5104014;28;20044;-81
2022/05/12 09:05:03;;;;;;;9.40;1.80;;;;;;;-141.50;100.00;63355.56;5080411;28;20056;-80
2022/05/12 09:07:34;;;;;;;13.55;1.92;;;;;;;-141.50;100.00;63355.56;5076229;28;20792;-81
2022/05/12 09:10:15;;;;;;;5.97;1.70;;;;;;;-141.50;100.00;63355.56;5094546;28;20091;-79
2022/05/12 09:12:51;;;;;;;5.00;1.63;;;;;;;-141.50;100.00;63355.56;5096986;28;20148;-78
2022/05/12 09:15:41;;;;;;;5.03;1.85;;;;;;;-141.50;100.00;63355.56;5092500;28;20048;-78
2022/05/12 09:18:31;;;;;;;6.07;1.60;;;;;;;-141.50;100.00;63355.56;5054929;28;20052;-78
2022/05/12 09:21:08;;;;;;;6.72;1.60;;;;;;;-141.50;100.00;63355.56;5072929;28;20049;-78
2022/05/12 09:23:35;;;;;;;4.32;1.65;;;;;;;-141.50;100.00;63355.56;5054550;28;20060;-79
2022/05/12 09:26:34;;;;;;;5.90;1.70;;;;;;;-141.50;100.00;63355.56;5080866;28;20284;-79
2022/05/12 09:29:23;;;;;;;8.05;1.70;;;;;;;-141.50;100.00;63355.56;5055496;28;20098;-77
2022/05/12 09:31:56;;;;;;;9.27;1.70;;;;;;;-141.50;100.00;63355.56;5056529;28;20714;-80
2022/05/12 09:34:40;;;;;;;6.80;1.60;;;;;;;-141.50;100.00;63355.56;5054789;28;20060;-81
2022/05/12 09:37:14;;;;;;;4.50;1.25;;;;;;;-141.50;100.00;63355.56;5075850;28;20076;-81
2022/05/12 09:39:43;;;;;;;5.97;1.40;;;;;;;-141.50;100.00;63355.56;5058498;28;20136;-78
2022/05/12 09:42:18;;;;;;;5.38;1.27;;;;;;;-141.50;100.00;63355.56;5081973;28;20049;-77
2022/05/12 09:44:56;;;;;;;5.20;1.50;;;;;;;-141.50;100.00;63355.56;5057257;28;20053;-78
2022/05/12 09:47:23;;;;;;;5.60;1.48;;;;;;;-141.50;100.00;63355.56;5058201;28;20487;-81
2022/05/12 09:49:51;;;;;;;3.63;1.13;;;;;;;-141.50;100.00;63355.56;5072758;28;20379;-79
2022/05/12 09:52:32;;;;;;;6.25;1.58;;;;;;;-141.50;100.00;63355.56;5060569;28;20052;-78
2022/05/12 09:55:10;;;;;;;4.47;1.50;;;;;;;-141.50;100.00;63355.56;5072701;28;20102;-78
2022/05/12 09:57:46;;;;;;;5.15;1.60;;;;;;;-141.50;100.00;63355.56;5080072;28;20122;-78
2022/05/12 10:00:30;;;;;;;11.05;1.55;;;;;;;-141.50;100.00;63355.56;5076245;28;20053;-82
2022/05/12 10:09:19;;;;;;;10.57;1.77;;;;;;;-141.50;100.00;63355.56;5076844;28;20063;-79
2022/05/12 10:12:06;;;;;;;5.68;1.50;;;;;;;-141.50;100.00;63355.56;5082184;28;20044;-79
2022/05/12 10:14:51;;;;;;;3.28;1.42;;;;;;;-141.50;100.00;63355.56;5057569;28;20048;-80
2022/05/12 10:17:30;;;;;;;5.35;1.13;;;;;;;-141.50;100.00;63355.56;5091978;28;20051;-81
2022/05/12 10:20:00;;;;;;;6.55;1.50;;;;;;;-141.50;100.00;63355.56;5079528;28;20127;-79
2022/05/12 10:22:59;;;;;;;4.13;1.20;;;;;;;-141.50;100.00;63355.56;5093536;28;20083;-82
2022/05/12 10:25:39;;;;;;;7.47;1.35;;;;;;;-141.50;100.00;63355.56;5093223;28;20101;-82
2022/05/12 10:28:12;;;;;;;8.70;1.60;;;;;;;-141.50;100.00;63355.56;5092564;28;20063;-81
2022/05/12 10:30:42;;;;;;;5.78;1.38;;;;;;;-141.50;100.00;63355.56;5090722;28;20098;-78
2022/05/12 10:33:18;;;;;;;5.05;1.30;;;;;;;-141.50;100.00;63355.56;5097328;28;20051;-76
2022/05/12 10:35:58;;;;;;;4.18;1.25;;;;;;;-141.50;100.00;63355.56;5097447;28;20074;-77
2022/05/12 10:38:27;;;;;;;4.60;1.30;;;;;;;-141.50;100.00;63355.56;5104063;28;20115;-79
2022/05/12 10:41:25;;;;;;;4.57;1.20;;;;;;;-141.50;100.00;63355.56;5077201;28;20040;-76
2022/05/12 10:44:22;;;;;;;6.70;1.65;;;;;;;-141.50;100.00;63355.56;5091376;28;20059;-79
2022/05/12 10:47:14;;;;;;;6.85;1.45;;;;;;;-141.50;100.00;63355.56;5060207;28;20076;-79
2022/05/12 10:49:45;;;;;;;4.45;1.30;;;;;;;-141.50;100.00;63355.56;5056467;28;20056;-79
2022/05/12 10:52:28;;;;;;;7.78;1.55;;;;;;;-141.50;100.00;63355.56;5073469;28;20052;-81
2022/05/12 10:55:09;;;;;;;8.32;1.63;;;;;;;-141.50;100.00;63355.56;5073277;28;20080;-78
2022/05/12 10:58:22;;;;;;;5.13;1.40;;;;;;;-141.50;100.00;63355.56;5054565;28;20075;-82
2022/05/12 11:01:02;;;;;;;4.72;1.40;;;;;;;-141.50;100.00;63355.56;5042220;28;20059;-78
2022/05/12 11:03:54;;;;;;;6.45;1.33;;;;;;;-141.50;100.00;63355.56;5069457;28;20584;-80
2022/05/12 11:06:32;;;;;;;4.50;1.35;;;;;;;-141.50;100.00;63355.56;5053618;28;20052;-77
2022/05/12 11:09:09;;;;;;;9.45;1.30;;;;;;;-141.50;100.00;63355.56;5072071;28;20131;-82
2022/05/12 11:11:41;;;;;;;3.78;1.30;;;;;;;-141.50;100.00;63355.56;5054365;28;20110;-81
2022/05/12 11:14:15;;;;;;;4.95;1.08;;;;;;;-141.50;100.00;63355.56;5046873;28;20059;-82
2022/05/12 11:17:05;;;;;;;5.20;1.42;;;;;;;-141.50;100.00;63355.56;5079422;28;20071;-80
2022/05/12 11:19:32;;;;;;;3.72;1.50;;;;;;;-141.50;100.00;63355.56;5090646;28;20075;-80
2022/05/12 11:22:07;;;;;;;7.78;1.60;;;;;;;-141.50;100.00;63355.56;5089746;28;20048;-79
2022/05/12 11:24:45;;;;;;;8.52;1.20;;;;;;;-141.50;100.00;63355.56;5094196;28;20121;-78
2022/05/12 11:27:31;;;;;;;3.42;1.00;;;;;;;-141.50;100.00;63355.56;5074246;28;20076;-81
2022/05/12 11:30:18;;;;;;;4.82;1.30;;;;;;;-141.50;100.00;63355.56;5091900;28;20131;-78
2022/05/12 11:32:55;;;;;;;6.03;1.42;;;;;;;-141.50;100.00;63355.56;5073389;28;20051;-80
2022/05/12 11:35:28;;;;;;;5.50;1.13;;;;;;;-141.50;100.00;63355.56;5073332;28;20137;-81
2022/05/12 11:37:59;;;;;;;7.85;1.38;;;;;;;-141.50;100.00;63355.56;5089728;28;20757;-82